createdAt,value
2023-04-17T00:00:13.170Z,36.55
2023-04-17T00:02:40.534Z,41.40
2023-04-17T00:07:38.854Z,35.88
2023-04-17T00:10:09.673Z,42.88
2023-04-17T00:12:36.330Z,41.03
2023-04-17T00:15:03.998Z,42.80
2023-04-17T00:17:30.649Z,44.30
2023-04-17T00:19:57.090Z,40.03
2023-04-17T00:22:23.549Z,41.78
2023-04-17T00:24:50.011Z,39.33
2023-04-17T00:27:16.379Z,42.20
2023-04-17T00:29:42.834Z,37.88
2023-04-17T00:32:09.309Z,41.85
2023-04-17T00:34:35.794Z,41.67
2023-04-17T00:37:02.155Z,41.75
2023-04-17T00:39:28.587Z,38.22
2023-04-17T00:41:54.990Z,42.22
2023-04-17T00:44:21.456Z,42.42
2023-04-17T00:46:47.900Z,42.05
2023-04-17T00:49:14.395Z,43.45
2023-04-17T00:51:40.985Z,38.10
2023-04-17T00:54:08.178Z,40.30
2023-04-17T00:56:34.707Z,42.42
2023-04-17T00:59:03.849Z,41.30
2023-04-17T01:01:30.336Z,38.20
2023-04-17T01:03:57.594Z,42.83
2023-04-17T01:06:25.215Z,42.90
2023-04-17T01:08:51.657Z,40.28
2023-04-17T01:11:18.194Z,37.15
2023-04-17T01:13:48.778Z,42.70
2023-04-17T01:16:15.597Z,40.80
2023-04-17T01:18:42.633Z,44.03
2023-04-17T01:21:09.328Z,39.10
2023-04-17T01:23:48.642Z,40.08
2023-04-17T01:26:25.537Z,36.08
2023-04-17T01:28:57.271Z,39.90
2023-04-17T01:31:25.881Z,40.10
2023-04-17T01:33:53.201Z,39.35
2023-04-17T01:36:19.807Z,42.92
2023-04-17T01:38:48.795Z,43.43
2023-04-17T01:41:15.394Z,38.53
2023-04-17T01:43:44.788Z,42.53
2023-04-17T01:46:12.079Z,38.83
2023-04-17T01:48:39.308Z,43.35
2023-04-17T01:51:06.470Z,41.22
2023-04-17T01:53:34.070Z,44.20
2023-04-17T01:58:28.964Z,36.85
2023-04-17T02:00:55.594Z,39.50
2023-04-17T02:03:24.482Z,42.13
2023-04-17T02:05:53.479Z,43.72
2023-04-17T02:08:21.123Z,47.20
2023-04-17T02:10:47.661Z,42.35
2023-04-17T02:13:15.461Z,45.97
2023-04-17T02:15:42.650Z,45.00
2023-04-17T02:18:09.442Z,43.67
2023-04-17T02:20:37.316Z,50.08
2023-04-17T02:23:05.747Z,48.15
2023-04-17T02:25:33.072Z,56.47
2023-04-17T02:27:59.990Z,49.75
2023-04-17T02:30:27.427Z,56.28
2023-04-17T02:32:54.949Z,53.65
2023-04-17T02:35:23.223Z,49.25
2023-04-17T02:37:49.819Z,55.92
2023-04-17T02:40:17.754Z,52.50
2023-04-17T02:42:46.706Z,54.70
2023-04-17T02:45:13.337Z,54.08
2023-04-17T02:47:39.885Z,49.07
2023-04-17T02:50:07.515Z,56.17
2023-04-17T02:55:00.555Z,55.97
2023-04-17T02:57:27.213Z,58.23
2023-04-17T02:59:53.790Z,62.43
2023-04-17T03:02:23.537Z,55.50
2023-04-17T03:04:51.220Z,57.95
2023-04-17T03:07:19.438Z,58.42
2023-04-17T03:09:47.138Z,58.75
2023-04-17T03:12:15.159Z,57.72
2023-04-17T03:14:42.329Z,61.15
2023-04-17T03:17:10.113Z,66.20
2023-04-17T03:19:36.753Z,59.22
2023-04-17T03:22:04.038Z,60.87
2023-04-17T03:24:31.601Z,65.93
2023-04-17T03:26:59.261Z,61.90
2023-04-17T03:29:25.802Z,68.32
2023-04-17T03:31:52.681Z,62.67
2023-04-17T03:34:22.319Z,68.13
2023-04-17T03:36:48.887Z,70.70
2023-04-17T03:39:15.936Z,61.93
2023-04-17T03:41:42.483Z,63.40
2023-04-17T03:44:09.980Z,64.75
2023-04-17T03:49:03.049Z,66.38
2023-04-17T03:51:29.535Z,64.07
2023-04-17T03:53:56.151Z,57.28
2023-04-17T03:56:22.748Z,66.37
2023-04-17T03:58:52.439Z,66.72
2023-04-17T04:01:19.356Z,63.35
2023-04-17T04:03:48.732Z,64.20
2023-04-17T04:06:20.393Z,65.05
2023-04-17T04:08:47.119Z,69.18
2023-04-17T04:11:13.708Z,63.15
2023-04-17T04:13:40.761Z,65.83
2023-04-17T04:16:07.940Z,63.83
2023-04-17T04:18:35.970Z,64.80
2023-04-17T04:21:02.569Z,70.03
2023-04-17T04:23:30.668Z,64.33
2023-04-17T04:25:58.018Z,65.35
2023-04-17T04:28:24.483Z,60.42
2023-04-17T04:30:51.512Z,71.50
2023-04-17T04:33:20.533Z,67.95
2023-04-17T04:35:51.841Z,61.85
2023-04-17T04:38:18.640Z,63.00
2023-04-17T04:40:50.030Z,61.40
2023-04-17T04:43:16.682Z,68.15
2023-04-17T04:45:43.205Z,68.37
2023-04-17T04:48:12.816Z,70.65
2023-04-17T04:50:39.537Z,66.22
2023-04-17T04:53:06.306Z,63.58
2023-04-17T04:55:33.174Z,70.22
2023-04-17T04:58:15.175Z,62.95
2023-04-17T05:00:43.724Z,64.78
2023-04-17T05:03:10.629Z,60.70
2023-04-17T05:05:40.325Z,66.63
2023-04-17T05:08:07.083Z,69.43
2023-04-17T05:10:34.674Z,61.70
2023-04-17T05:13:01.212Z,64.32
2023-04-17T05:15:27.926Z,68.05
2023-04-17T05:17:54.599Z,67.00
2023-04-17T05:20:21.454Z,65.15
2023-04-17T05:22:48.108Z,70.70
2023-04-17T05:25:16.258Z,72.57
2023-04-17T05:27:42.891Z,68.43
2023-04-17T05:30:09.953Z,66.23
2023-04-17T05:32:36.582Z,74.25
2023-04-17T05:35:06.750Z,64.70
2023-04-17T05:37:33.244Z,70.20
2023-04-17T05:40:07.248Z,77.72
2023-04-17T05:42:35.171Z,72.18
2023-04-17T05:45:07.327Z,68.50
2023-04-17T05:47:34.224Z,73.43
2023-04-17T05:50:02.185Z,80.00
2023-04-17T05:52:29.114Z,67.47
2023-04-17T05:54:56.838Z,70.70
2023-04-17T05:57:23.321Z,73.72
2023-04-17T05:59:49.812Z,67.90
2023-04-17T06:02:30.595Z,63.03
2023-04-17T06:04:59.517Z,70.72
2023-04-17T06:07:28.200Z,67.28
2023-04-17T06:10:01.763Z,66.20
2023-04-17T06:12:28.735Z,66.32
2023-04-17T06:15:05.672Z,64.05
2023-04-17T06:17:33.041Z,71.28
2023-04-17T06:19:59.702Z,69.80
2023-04-17T06:22:27.328Z,70.40
2023-04-17T06:24:53.850Z,62.58
2023-04-17T06:27:20.720Z,65.38
2023-04-17T06:29:47.246Z,65.13
2023-04-17T06:32:13.746Z,67.55
2023-04-17T06:34:52.559Z,67.67
2023-04-17T06:37:24.916Z,60.97
2023-04-17T06:39:51.309Z,60.25
2023-04-17T06:42:17.760Z,62.65
2023-04-17T06:44:47.204Z,62.03
2023-04-17T06:47:13.664Z,66.32
2023-04-17T06:49:52.031Z,66.40
2023-04-17T06:52:21.998Z,59.28
2023-04-17T06:54:48.435Z,61.50
2023-04-17T06:57:14.999Z,63.65
2023-04-17T06:59:42.315Z,64.03
2023-04-17T07:02:08.854Z,55.53
2023-04-17T07:04:35.604Z,62.87
2023-04-17T07:07:02.247Z,62.80
2023-04-17T07:09:34.763Z,66.17
2023-04-17T07:12:01.198Z,59.70
2023-04-17T07:14:29.852Z,63.08
2023-04-17T07:17:08.471Z,59.65
2023-04-17T07:19:36.844Z,64.32
2023-04-17T07:22:05.444Z,58.47
2023-04-17T07:24:34.908Z,60.65
2023-04-17T07:27:06.644Z,55.33
2023-04-17T07:29:33.412Z,59.83
2023-04-17T07:31:59.892Z,51.38
2023-04-17T07:34:31.279Z,53.13
2023-04-17T07:36:57.766Z,54.97
2023-04-17T07:39:26.889Z,51.28
2023-04-17T07:41:53.317Z,56.72
2023-04-17T07:44:25.552Z,49.70
2023-04-17T07:46:52.112Z,50.35
2023-04-17T07:49:19.123Z,47.17
2023-04-17T07:51:46.097Z,50.85
2023-04-17T07:54:13.268Z,49.78
2023-04-17T07:56:40.062Z,55.80
2023-04-17T07:59:06.482Z,52.13
2023-04-17T08:01:33.875Z,50.38
2023-04-17T08:06:28.204Z,44.60
2023-04-17T08:08:54.836Z,44.85
2023-04-17T08:11:21.324Z,50.28
2023-04-17T08:13:47.908Z,43.63
2023-04-17T08:16:17.079Z,49.10
2023-04-17T08:18:44.781Z,42.45
2023-04-17T08:21:11.467Z,40.72
2023-04-17T08:23:38.131Z,40.97
2023-04-17T08:26:05.132Z,37.92
2023-04-17T08:28:31.778Z,41.25
2023-04-17T08:31:08.683Z,37.10
2023-04-17T08:33:35.522Z,35.33
2023-04-17T08:36:04.732Z,39.25
2023-04-17T08:38:32.395Z,42.08
2023-04-17T08:41:05.577Z,34.30
2023-04-17T08:43:35.206Z,36.78
2023-04-17T08:46:03.636Z,35.83
2023-04-17T08:48:31.704Z,36.08
2023-04-17T08:51:00.886Z,34.85
2023-04-17T08:53:27.575Z,30.50
2023-04-17T08:55:54.039Z,30.50
2023-04-17T08:58:21.989Z,31.20
2023-04-17T09:00:48.513Z,32.30
2023-04-17T09:03:15.514Z,38.83
2023-04-17T09:08:21.150Z,32.78
2023-04-17T09:10:48.754Z,29.75
2023-04-17T09:13:19.709Z,38.85
2023-04-17T09:15:48.492Z,31.88
2023-04-17T09:18:28.732Z,29.73
2023-04-17T09:20:59.105Z,27.33
2023-04-17T09:23:30.895Z,29.42
2023-04-17T09:26:08.953Z,28.30
2023-04-17T09:28:36.828Z,29.23
2023-04-17T09:31:05.800Z,33.55
2023-04-17T09:33:32.703Z,31.85
2023-04-17T09:36:27.514Z,33.22
2023-04-17T09:38:54.434Z,29.60
2023-04-17T09:41:28.942Z,30.85
2023-04-17T09:44:07.090Z,29.17
2023-04-17T09:46:42.719Z,33.58
2023-04-17T09:49:09.966Z,28.77
2023-04-17T09:51:36.896Z,25.35
2023-04-17T09:54:11.772Z,30.90
2023-04-17T09:56:38.937Z,27.02
2023-04-17T09:59:06.673Z,27.25
2023-04-17T10:01:37.926Z,31.98
2023-04-17T10:04:05.541Z,29.38
2023-04-17T10:06:33.721Z,27.20
2023-04-17T10:09:01.133Z,33.50
2023-04-17T10:11:37.752Z,28.50
2023-04-17T10:14:11.879Z,25.35
2023-04-17T10:16:40.447Z,28.15
2023-04-17T10:19:33.738Z,26.27
2023-04-17T10:22:27.887Z,27.67
2023-04-17T10:25:14.696Z,26.13
2023-04-17T10:27:41.318Z,26.48
2023-04-17T10:30:14.992Z,25.17
2023-04-17T10:33:13.034Z,22.42
2023-04-17T10:35:39.644Z,21.33
2023-04-17T10:38:07.712Z,27.33
2023-04-17T10:40:36.226Z,24.08
2023-04-17T10:43:18.019Z,22.23
2023-04-17T10:46:14.814Z,23.85
2023-04-17T10:48:50.644Z,23.67
2023-04-17T10:51:29.382Z,21.83
2023-04-17T10:53:57.260Z,24.85
2023-04-17T10:56:49.222Z,24.13
2023-04-17T10:59:19.178Z,27.05
2023-04-17T11:01:48.707Z,23.48
2023-04-17T11:04:24.085Z,21.08
2023-04-17T11:06:55.496Z,23.55
2023-04-17T11:09:23.910Z,22.55
2023-04-17T11:11:52.423Z,25.05
2023-04-17T11:14:20.799Z,21.15
2023-04-17T11:16:49.462Z,21.35
2023-04-17T11:19:28.849Z,21.98
2023-04-17T11:21:58.600Z,21.40
2023-04-17T11:24:29.139Z,28.45
2023-04-17T11:26:58.315Z,25.65
2023-04-17T11:29:26.376Z,23.35
2023-04-17T11:31:57.059Z,25.60
2023-04-17T11:34:26.780Z,24.10
2023-04-17T11:36:56.645Z,23.73
2023-04-17T11:39:25.158Z,24.83
2023-04-17T11:41:52.726Z,24.85
2023-04-17T11:44:23.596Z,22.50
2023-04-17T11:46:51.846Z,24.45
2023-04-17T11:49:29.352Z,23.50
2023-04-17T11:52:00.038Z,25.85
2023-04-17T11:54:27.581Z,24.55
2023-04-17T11:57:11.363Z,29.10
2023-04-17T11:59:39.499Z,30.38
2023-04-17T12:02:07.459Z,23.83
2023-04-17T12:04:38.232Z,25.65
2023-04-17T12:07:06.900Z,27.70
2023-04-17T12:09:34.927Z,21.55
2023-04-17T12:12:08.027Z,24.73
2023-04-17T12:14:35.768Z,25.27
2023-04-17T12:17:03.059Z,21.45
2023-04-17T12:19:31.920Z,22.80
2023-04-17T12:21:59.544Z,21.73
2023-04-17T12:24:26.272Z,21.23
2023-04-17T12:26:53.632Z,22.80
2023-04-17T12:29:26.560Z,23.50
2023-04-17T12:32:10.805Z,24.30
2023-04-17T12:34:37.464Z,23.08
2023-04-17T12:37:09.705Z,23.30
2023-04-17T12:39:37.338Z,25.65
2023-04-17T12:42:03.892Z,26.52
2023-04-17T12:44:35.587Z,22.75
2023-04-17T12:47:07.444Z,22.48
2023-04-17T12:49:33.912Z,23.25
2023-04-17T12:52:03.560Z,23.15
2023-04-17T12:54:30.260Z,22.55
2023-04-17T12:56:57.680Z,19.35
2023-04-17T12:59:24.138Z,19.52
2023-04-17T13:01:50.646Z,23.60
2023-04-17T13:04:17.395Z,22.35
2023-04-17T13:06:44.409Z,21.40
2023-04-17T13:09:11.411Z,19.65
2023-04-17T13:11:38.037Z,20.80
2023-04-17T13:14:04.462Z,22.92
2023-04-17T13:16:31.543Z,17.30
2023-04-17T13:19:00.052Z,19.13
2023-04-17T13:21:26.833Z,19.52
2023-04-17T13:23:54.276Z,15.63
2023-04-17T13:26:20.748Z,14.95
2023-04-17T13:28:47.234Z,17.67
2023-04-17T13:31:14.259Z,18.35
2023-04-17T13:33:41.758Z,19.20
2023-04-17T13:36:08.261Z,17.40
2023-04-17T13:38:34.704Z,21.08
2023-04-17T13:41:03.313Z,20.48
2023-04-17T13:43:29.795Z,20.42
2023-04-17T13:45:56.923Z,19.23
2023-04-17T13:48:24.531Z,13.85
2023-04-17T13:50:52.125Z,15.95
2023-04-17T13:53:19.735Z,16.70
2023-04-17T13:55:46.284Z,13.95
2023-04-17T13:58:14.881Z,14.10
2023-04-17T14:00:41.294Z,16.73
2023-04-17T14:03:07.898Z,12.30
2023-04-17T14:05:35.507Z,14.70
2023-04-17T14:08:02.070Z,16.55
2023-04-17T14:10:28.587Z,14.27
2023-04-17T14:12:55.093Z,18.88
2023-04-17T14:15:21.778Z,13.00
2023-04-17T14:17:49.503Z,17.10
2023-04-17T14:20:19.951Z,14.13
2023-04-17T14:22:49.576Z,16.75
2023-04-17T14:25:17.056Z,14.85
2023-04-17T14:27:43.513Z,14.93
2023-04-17T14:30:10.255Z,14.15
2023-04-17T14:32:40.092Z,15.10
2023-04-17T14:35:06.986Z,15.20
2023-04-17T14:37:34.072Z,13.20
2023-04-17T14:40:04.715Z,10.98
2023-04-17T14:42:34.114Z,11.13
2023-04-17T14:45:05.654Z,15.77
2023-04-17T14:47:33.579Z,10.95
2023-04-17T14:50:07.766Z,13.45
2023-04-17T14:52:34.224Z,11.13
2023-04-17T14:57:27.496Z,11.60
2023-04-17T14:59:53.955Z,11.70
2023-04-17T15:02:20.585Z,12.65
2023-04-17T15:07:25.797Z,14.38
2023-04-17T15:09:52.754Z,17.48
2023-04-17T15:12:19.960Z,14.52
2023-04-17T15:14:47.454Z,14.60
2023-04-17T15:17:16.569Z,16.80
2023-04-17T15:19:43.107Z,16.08
2023-04-17T15:22:09.776Z,14.43
2023-04-17T15:24:36.272Z,14.57
2023-04-17T15:27:02.824Z,14.73
2023-04-17T15:29:29.260Z,14.88
2023-04-17T15:31:55.789Z,17.90
2023-04-17T15:34:22.465Z,17.00
2023-04-17T15:39:15.681Z,16.42
2023-04-17T15:41:43.317Z,11.93
2023-04-17T15:44:09.789Z,15.93
2023-04-17T15:46:36.515Z,14.27
2023-04-17T15:51:35.963Z,13.13
2023-04-17T15:54:02.431Z,12.65
2023-04-17T15:56:28.936Z,15.55
2023-04-17T15:58:55.424Z,12.13
2023-04-17T16:01:24.176Z,11.55
2023-04-17T16:03:50.940Z,11.25
2023-04-17T16:06:17.573Z,12.60
2023-04-17T16:08:44.016Z,11.95
2023-04-17T16:11:11.408Z,14.05
2023-04-17T16:13:38.138Z,10.35
2023-04-17T16:16:10.764Z,12.68
2023-04-17T16:18:37.273Z,10.57
2023-04-17T16:21:03.821Z,10.57
2023-04-17T16:23:30.360Z,11.07
2023-04-17T16:25:56.827Z,10.35
2023-04-17T16:28:29.390Z,9.77
2023-04-17T16:30:55.845Z,11.68
2023-04-17T16:33:22.335Z,10.52
2023-04-17T16:35:50.085Z,13.32
2023-04-17T16:38:16.561Z,11.20
2023-04-17T16:40:58.967Z,8.65
2023-04-17T16:43:26.738Z,11.70
2023-04-17T16:45:53.215Z,11.48
2023-04-17T16:48:19.784Z,9.98
2023-04-17T16:50:48.624Z,9.65
2023-04-17T16:53:16.598Z,11.82
2023-04-17T16:55:43.102Z,8.50
2023-04-17T16:58:09.506Z,8.52
2023-04-17T17:00:40.164Z,11.77
2023-04-17T17:03:14.710Z,9.75
2023-04-17T17:05:41.196Z,13.57
2023-04-17T17:08:07.676Z,9.02
2023-04-17T17:10:34.648Z,11.85
2023-04-17T17:13:01.057Z,10.35
2023-04-17T17:15:27.771Z,10.38
2023-04-17T17:20:29.412Z,8.43
2023-04-17T17:22:57.318Z,8.27
2023-04-17T17:25:23.841Z,12.52
2023-04-17T17:27:52.592Z,7.68
2023-04-17T17:30:20.670Z,8.68
2023-04-17T17:32:47.179Z,9.15
2023-04-17T17:35:14.774Z,8.05
2023-04-17T17:37:45.609Z,16.38
2023-04-17T17:40:12.391Z,9.88
2023-04-17T17:42:39.864Z,10.50
2023-04-17T17:45:06.918Z,11.20
2023-04-17T17:50:00.500Z,12.15
2023-04-17T17:52:28.026Z,10.80
2023-04-17T17:54:54.519Z,8.65
2023-04-17T17:57:21.139Z,8.63
2023-04-17T17:59:47.704Z,10.02
2023-04-17T18:02:14.283Z,9.18
2023-04-17T18:04:41.143Z,14.00
2023-04-17T18:07:08.224Z,14.45
2023-04-17T18:09:34.644Z,9.05
2023-04-17T18:12:01.952Z,9.82
2023-04-17T18:14:32.716Z,10.32
2023-04-17T18:17:01.360Z,11.10
2023-04-17T18:19:27.936Z,11.38
2023-04-17T18:21:55.380Z,11.23
2023-04-17T18:24:25.631Z,12.45
2023-04-17T18:26:52.148Z,12.65
2023-04-17T18:29:19.644Z,10.10
2023-04-17T18:31:46.452Z,9.98
2023-04-17T18:34:13.323Z,15.60
2023-04-17T18:36:42.287Z,10.32
2023-04-17T18:39:08.901Z,14.48
2023-04-17T18:41:35.418Z,14.98
2023-04-17T18:44:02.006Z,11.68
2023-04-17T18:46:30.534Z,10.63
2023-04-17T18:48:57.826Z,11.13
2023-04-17T18:53:50.610Z,9.57
2023-04-17T18:56:17.101Z,11.10
2023-04-17T18:58:43.554Z,10.05
2023-04-17T19:01:10.648Z,9.88
2023-04-17T19:06:11.629Z,12.85
2023-04-17T19:08:39.639Z,9.30
2023-04-17T19:11:10.332Z,10.80
2023-04-17T19:13:36.869Z,8.38
2023-04-17T19:16:11.485Z,13.20
2023-04-17T19:18:39.098Z,10.68
2023-04-17T19:21:07.369Z,10.25
2023-04-17T19:23:38.964Z,10.02
2023-04-17T19:26:05.636Z,12.10
2023-04-17T19:28:32.133Z,7.93
2023-04-17T19:30:59.248Z,12.77
2023-04-17T19:33:26.043Z,10.38
2023-04-17T19:35:53.646Z,10.93
2023-04-17T19:38:20.465Z,12.32
2023-04-17T19:41:15.214Z,10.73
2023-04-17T19:43:42.691Z,11.40
2023-04-17T19:48:37.109Z,11.20
2023-04-17T19:51:08.080Z,10.02
2023-04-17T19:53:39.761Z,14.93
2023-04-17T19:56:08.696Z,13.02
2023-04-17T19:58:35.968Z,13.43
2023-04-17T20:01:02.970Z,13.52
2023-04-17T20:03:31.857Z,14.57
2023-04-17T20:05:59.194Z,12.63
2023-04-17T20:08:26.640Z,15.13
2023-04-17T20:10:53.499Z,16.13
2023-04-17T20:13:20.154Z,14.40
2023-04-17T20:15:46.697Z,12.10
2023-04-17T20:18:13.586Z,12.57
2023-04-17T20:20:40.156Z,11.55
2023-04-17T20:23:06.934Z,11.45
2023-04-17T20:25:33.675Z,13.27
2023-04-17T20:28:02.748Z,11.88
2023-04-17T20:30:29.615Z,12.25
2023-04-17T20:32:56.783Z,11.07
2023-04-17T20:35:26.370Z,12.52
2023-04-17T20:37:52.966Z,11.68
2023-04-17T20:40:20.233Z,13.18
2023-04-17T20:45:14.471Z,10.60
2023-04-17T20:47:55.964Z,10.82
2023-04-17T20:50:25.048Z,10.80
2023-04-17T20:52:51.835Z,10.90
2023-04-17T20:55:20.227Z,11.40
2023-04-17T20:57:48.346Z,10.52
2023-04-17T21:00:15.216Z,10.95
2023-04-17T21:02:42.095Z,9.88
2023-04-17T21:05:09.233Z,10.68
2023-04-17T21:07:36.740Z,12.30
2023-04-17T21:12:32.957Z,11.25
2023-04-17T21:14:59.797Z,12.32
2023-04-17T21:17:28.534Z,12.35
2023-04-17T21:19:57.817Z,10.73
2023-04-17T21:22:24.426Z,10.98
2023-04-17T21:24:51.123Z,14.03
2023-04-17T21:27:18.033Z,15.27
2023-04-17T21:29:44.710Z,13.05
2023-04-17T21:32:11.284Z,11.10
2023-04-17T21:34:37.825Z,14.23
2023-04-17T21:37:05.070Z,12.50
2023-04-17T21:39:33.255Z,10.80
2023-04-17T21:42:03.050Z,11.43
2023-04-17T21:44:29.592Z,13.27
2023-04-17T21:46:56.227Z,14.00
2023-04-17T21:49:22.992Z,16.77
2023-04-17T21:51:49.675Z,14.48
2023-04-17T21:54:16.793Z,14.45
2023-04-17T21:56:43.362Z,12.82
2023-04-17T21:59:10.064Z,12.00
2023-04-17T22:01:37.698Z,12.02
2023-04-17T22:04:04.471Z,13.48
2023-04-17T22:06:35.518Z,16.63
2023-04-17T22:09:02.741Z,16.15
2023-04-17T22:11:29.499Z,16.45
2023-04-17T22:13:56.194Z,11.45
2023-04-17T22:16:22.755Z,16.65
2023-04-17T22:18:49.403Z,11.57
2023-04-17T22:21:54.239Z,15.07
2023-04-17T22:24:41.073Z,20.02
2023-04-17T22:27:44.737Z,15.73
2023-04-17T22:30:30.177Z,14.00
2023-04-17T22:33:34.558Z,17.08
2023-04-17T22:36:19.758Z,12.98
2023-04-17T22:39:24.122Z,13.60
2023-04-17T22:42:28.653Z,12.95
2023-04-17T22:45:14.151Z,16.33
2023-04-17T22:47:41.203Z,19.55
2023-04-17T22:50:26.645Z,14.93
2023-04-17T22:53:12.125Z,13.68
2023-04-17T22:55:57.331Z,18.83
2023-04-17T22:58:23.890Z,13.57
2023-04-17T23:01:10.248Z,16.87
2023-04-17T23:04:14.346Z,13.00
2023-04-17T23:06:59.689Z,15.88
2023-04-17T23:09:26.386Z,15.20
2023-04-17T23:11:52.949Z,16.58
2023-04-17T23:14:19.705Z,15.67
2023-04-17T23:16:46.543Z,14.50
2023-04-17T23:19:13.422Z,13.80
2023-04-17T23:21:40.110Z,13.70
2023-04-17T23:24:06.774Z,17.20
2023-04-17T23:26:33.418Z,20.77
2023-04-17T23:29:02.888Z,19.17
2023-04-17T23:31:29.418Z,14.35
2023-04-17T23:33:55.964Z,13.87
2023-04-17T23:36:25.824Z,15.52
2023-04-17T23:38:53.839Z,15.55
2023-04-17T23:41:20.553Z,14.88
2023-04-17T23:43:47.018Z,15.10
2023-04-17T23:46:13.628Z,16.13
2023-04-17T23:48:40.505Z,17.50
2023-04-17T23:51:07.095Z,18.48
2023-04-17T23:53:34.006Z,15.70
2023-04-17T23:56:00.764Z,14.55
2023-04-17T23:58:27.463Z,14.63
